首页
METAR-TAF:

METAR-TAF

机场 :

太原武宿国际机场

太原, 中华人民共和国

纬度: 37-47N, 经度: 112-33E, 海拔: 779米

当前天气观测

该预报发布于42分钟前的03:00 UTC
风速4节,风向东南
温度 22°C
湿度 83%
气压 1010 hPa
能見度: 5000
轻雾

METAR: ZBYN 200300Z 14002MPS 5000 BR NSC 22/19 Q1010 NOSIG

时间: 11:42 (03:42 UTC)

预报

该预报发布于8小时和39分钟前的19:03 UTC
预报有效从20日的 00点(UTC)到 20日的 24点(UTC)
风速8节,风向
能見度: 6000
短暂存在
从 20日的 00点(UTC)到 20日的 04点(UTC)
能見度: 2500
小阵雨

TAF: ZBYN 191903Z 2000/2024 09004MPS 6000 NSC TX27/2007Z TN20/2021Z TEMPO 2000/2004 2500 -SHRA

超过4000个机场的气象观测和天气预报(METAR&TAF报告)。

可查询的气象台以黄色和红色小点在地图上表示。

将鼠标移到小点上方,可查看气象台名称。

然后点击查看天气观测和预报。

如需切换地图:点击带黑十字的绿色按钮放大地图;点击带横线的绿色按钮缩小地图;或者点击绿色箭头查看邻近地区的地图。


METAR-TAF: